sensor_id;sensor_type;location;lat;lon;timestamp;P1;durP1;ratioP1;P2;durP2;ratioP2
8777;SDS011;4425;50.872;4.712;2023-04-28T00:02:22;20.20;;;17.30;;
8777;SDS011;4425;50.872;4.712;2023-04-28T00:04:52;24.00;;;18.13;;
8777;SDS011;4425;50.872;4.712;2023-04-28T00:07:19;28.13;;;20.50;;
8777;SDS011;4425;50.872;4.712;2023-04-28T00:09:46;26.97;;;18.60;;
8777;SDS011;4425;50.872;4.712;2023-04-28T00:12:14;23.00;;;18.43;;
8777;SDS011;4425;50.872;4.712;2023-04-28T00:14:43;23.07;;;19.30;;
8777;SDS011;4425;50.872;4.712;2023-04-28T00:17:11;25.27;;;19.63;;
8777;SDS011;4425;50.872;4.712;2023-04-28T00:19:38;25.60;;;19.53;;
8777;SDS011;4425;50.872;4.712;2023-04-28T00:22:08;22.10;;;18.07;;
8777;SDS011;4425;50.872;4.712;2023-04-28T00:24:35;24.00;;;18.50;;
8777;SDS011;4425;50.872;4.712;2023-04-28T00:27:02;25.50;;;20.53;;
8777;SDS011;4425;50.872;4.712;2023-04-28T00:29:30;24.77;;;19.20;;
8777;SDS011;4425;50.872;4.712;2023-04-28T00:31:57;23.57;;;19.83;;
8777;SDS011;4425;50.872;4.712;2023-04-28T00:34:26;26.67;;;20.83;;
8777;SDS011;4425;50.872;4.712;2023-04-28T00:36:54;26.60;;;20.57;;
8777;SDS011;4425;50.872;4.712;2023-04-28T00:39:21;25.67;;;21.13;;
8777;SDS011;4425;50.872;4.712;2023-04-28T00:41:48;26.20;;;21.77;;
8777;SDS011;4425;50.872;4.712;2023-04-28T00:44:16;30.23;;;22.03;;
8777;SDS011;4425;50.872;4.712;2023-04-28T00:46:43;28.20;;;21.37;;
8777;SDS011;4425;50.872;4.712;2023-04-28T00:49:13;30.30;;;21.40;;
8777;SDS011;4425;50.872;4.712;2023-04-28T00:51:43;28.07;;;21.93;;
8777;SDS011;4425;50.872;4.712;2023-04-28T00:54:12;29.53;;;22.10;;
8777;SDS011;4425;50.872;4.712;2023-04-28T00:56:42;28.43;;;22.27;;
8777;SDS011;4425;50.872;4.712;2023-04-28T00:59:11;29.63;;;21.90;;
8777;SDS011;4425;50.872;4.712;2023-04-28T01:01:38;26.70;;;22.17;;
8777;SDS011;4425;50.872;4.712;2023-04-28T01:04:05;24.87;;;21.63;;
8777;SDS011;4425;50.872;4.712;2023-04-28T01:06:32;25.27;;;21.23;;
8777;SDS011;4425;50.872;4.712;2023-04-28T01:09:02;30.30;;;23.60;;
8777;SDS011;4425;50.872;4.712;2023-04-28T01:11:30;28.27;;;23.50;;
8777;SDS011;4425;50.872;4.712;2023-04-28T01:13:57;28.60;;;22.97;;
8777;SDS011;4425;50.872;4.712;2023-04-28T01:16:24;29.03;;;22.37;;
8777;SDS011;4425;50.872;4.712;2023-04-28T01:18:53;31.77;;;23.50;;
8777;SDS011;4425;50.872;4.712;2023-04-28T01:21:26;27.33;;;22.80;;
8777;SDS011;4425;50.872;4.712;2023-04-28T01:23:57;25.47;;;22.67;;
8777;SDS011;4425;50.872;4.712;2023-04-28T01:26:24;31.60;;;23.37;;
8777;SDS011;4425;50.872;4.712;2023-04-28T01:28:54;29.43;;;23.03;;
8777;SDS011;4425;50.872;4.712;2023-04-28T01:31:21;27.13;;;23.13;;
8777;SDS011;4425;50.872;4.712;2023-04-28T01:33:49;28.93;;;23.23;;
8777;SDS011;4425;50.872;4.712;2023-04-28T01:36:16;26.83;;;23.03;;
8777;SDS011;4425;50.872;4.712;2023-04-28T01:38:44;31.03;;;23.33;;
8777;SDS011;4425;50.872;4.712;2023-04-28T01:41:14;29.10;;;22.97;;
8777;SDS011;4425;50.872;4.712;2023-04-28T01:43:42;28.93;;;23.77;;
8777;SDS011;4425;50.872;4.712;2023-04-28T01:46:09;30.60;;;23.20;;
8777;SDS011;4425;50.872;4.712;2023-04-28T01:48:38;30.63;;;23.83;;
8777;SDS011;4425;50.872;4.712;2023-04-28T01:51:05;29.73;;;23.13;;
8777;SDS011;4425;50.872;4.712;2023-04-28T01:53:32;30.07;;;23.73;;
8777;SDS011;4425;50.872;4.712;2023-04-28T01:56:02;28.17;;;23.80;;
8777;SDS011;4425;50.872;4.712;2023-04-28T01:58:33;28.53;;;24.13;;
8777;SDS011;4425;50.872;4.712;2023-04-28T02:01:00;29.33;;;24.63;;
8777;SDS011;4425;50.872;4.712;2023-04-28T02:03:30;32.03;;;24.90;;
8777;SDS011;4425;50.872;4.712;2023-04-28T02:05:58;32.87;;;24.57;;
8777;SDS011;4425;50.872;4.712;2023-04-28T02:08:25;31.87;;;25.47;;
8777;SDS011;4425;50.872;4.712;2023-04-28T02:10:53;31.03;;;24.70;;
8777;SDS011;4425;50.872;4.712;2023-04-28T02:13:22;29.00;;;24.90;;
8777;SDS011;4425;50.872;4.712;2023-04-28T02:15:52;31.30;;;24.53;;
8777;SDS011;4425;50.872;4.712;2023-04-28T02:18:19;30.63;;;23.23;;
8777;SDS011;4425;50.872;4.712;2023-04-28T02:20:47;28.63;;;22.47;;
8777;SDS011;4425;50.872;4.712;2023-04-28T02:23:14;27.60;;;22.87;;
8777;SDS011;4425;50.872;4.712;2023-04-28T02:25:48;31.60;;;23.60;;
8777;SDS011;4425;50.872;4.712;2023-04-28T02:28:15;28.90;;;23.67;;
8777;SDS011;4425;50.872;4.712;2023-04-28T02:30:42;33.70;;;23.63;;
8777;SDS011;4425;50.872;4.712;2023-04-28T02:33:11;25.43;;;22.43;;
8777;SDS011;4425;50.872;4.712;2023-04-28T02:35:38;30.73;;;24.40;;
8777;SDS011;4425;50.872;4.712;2023-04-28T02:38:07;29.17;;;22.63;;
8777;SDS011;4425;50.872;4.712;2023-04-28T02:40:35;30.67;;;24.03;;
8777;SDS011;4425;50.872;4.712;2023-04-28T02:43:03;30.33;;;24.63;;
8777;SDS011;4425;50.872;4.712;2023-04-28T02:45:30;34.70;;;25.03;;
8777;SDS011;4425;50.872;4.712;2023-04-28T02:47:57;29.20;;;24.67;;
8777;SDS011;4425;50.872;4.712;2023-04-28T02:50:29;29.63;;;24.90;;
8777;SDS011;4425;50.872;4.712;2023-04-28T02:52:56;28.27;;;24.67;;
8777;SDS011;4425;50.872;4.712;2023-04-28T02:55:23;28.13;;;24.93;;
8777;SDS011;4425;50.872;4.712;2023-04-28T02:57:50;29.90;;;24.30;;
8777;SDS011;4425;50.872;4.712;2023-04-28T03:00:18;29.50;;;23.60;;
8777;SDS011;4425;50.872;4.712;2023-04-28T03:02:45;29.13;;;24.17;;
8777;SDS011;4425;50.872;4.712;2023-04-28T03:05:12;28.30;;;23.77;;
8777;SDS011;4425;50.872;4.712;2023-04-28T03:07:41;29.83;;;25.00;;
8777;SDS011;4425;50.872;4.712;2023-04-28T03:10:08;30.43;;;24.03;;
8777;SDS011;4425;50.872;4.712;2023-04-28T03:12:36;31.17;;;23.97;;
8777;SDS011;4425;50.872;4.712;2023-04-28T03:15:03;30.07;;;23.83;;
8777;SDS011;4425;50.872;4.712;2023-04-28T03:17:32;33.93;;;24.73;;
8777;SDS011;4425;50.872;4.712;2023-04-28T03:20:01;29.80;;;23.23;;
8777;SDS011;4425;50.872;4.712;2023-04-28T03:22:31;27.87;;;23.73;;
8777;SDS011;4425;50.872;4.712;2023-04-28T03:24:59;33.63;;;24.33;;
8777;SDS011;4425;50.872;4.712;2023-04-28T03:27:27;31.23;;;25.00;;
8777;SDS011;4425;50.872;4.712;2023-04-28T03:29:57;29.17;;;25.53;;
8777;SDS011;4425;50.872;4.712;2023-04-28T03:32:32;31.67;;;23.60;;
8777;SDS011;4425;50.872;4.712;2023-04-28T03:34:59;28.10;;;23.97;;
8777;SDS011;4425;50.872;4.712;2023-04-28T03:37:27;29.30;;;24.83;;
8777;SDS011;4425;50.872;4.712;2023-04-28T03:39:54;31.57;;;24.77;;
8777;SDS011;4425;50.872;4.712;2023-04-28T03:42:23;29.30;;;23.37;;
8777;SDS011;4425;50.872;4.712;2023-04-28T03:44:50;27.80;;;24.47;;
8777;SDS011;4425;50.872;4.712;2023-04-28T03:47:18;31.47;;;25.80;;
8777;SDS011;4425;50.872;4.712;2023-04-28T03:49:45;29.50;;;25.50;;
8777;SDS011;4425;50.872;4.712;2023-04-28T03:52:13;27.93;;;24.70;;
8777;SDS011;4425;50.872;4.712;2023-04-28T03:54:40;29.47;;;24.00;;
8777;SDS011;4425;50.872;4.712;2023-04-28T03:57:07;29.90;;;24.63;;
8777;SDS011;4425;50.872;4.712;2023-04-28T03:59:36;31.50;;;25.03;;
8777;SDS011;4425;50.872;4.712;2023-04-28T04:02:03;30.60;;;25.30;;
8777;SDS011;4425;50.872;4.712;2023-04-28T04:04:31;29.13;;;24.70;;
8777;SDS011;4425;50.872;4.712;2023-04-28T04:06:58;33.37;;;25.77;;
8777;SDS011;4425;50.872;4.712;2023-04-28T04:09:25;31.43;;;25.53;;
8777;SDS011;4425;50.872;4.712;2023-04-28T04:11:54;30.07;;;24.83;;
8777;SDS011;4425;50.872;4.712;2023-04-28T04:14:21;32.00;;;25.43;;
8777;SDS011;4425;50.872;4.712;2023-04-28T04:16:54;29.80;;;24.70;;
8777;SDS011;4425;50.872;4.712;2023-04-28T04:19:21;28.37;;;25.10;;
8777;SDS011;4425;50.872;4.712;2023-04-28T04:21:50;32.97;;;25.83;;
8777;SDS011;4425;50.872;4.712;2023-04-28T04:24:17;33.17;;;27.10;;
8777;SDS011;4425;50.872;4.712;2023-04-28T04:26:47;32.57;;;25.97;;
8777;SDS011;4425;50.872;4.712;2023-04-28T04:29:15;34.00;;;25.90;;
8777;SDS011;4425;50.872;4.712;2023-04-28T04:31:43;31.43;;;26.20;;
8777;SDS011;4425;50.872;4.712;2023-04-28T04:34:12;35.23;;;26.10;;
8777;SDS011;4425;50.872;4.712;2023-04-28T04:36:39;33.77;;;26.73;;
8777;SDS011;4425;50.872;4.712;2023-04-28T04:39:07;32.27;;;25.97;;
8777;SDS011;4425;50.872;4.712;2023-04-28T04:41:34;28.00;;;24.93;;
8777;SDS011;4425;50.872;4.712;2023-04-28T04:44:01;33.63;;;26.20;;
8777;SDS011;4425;50.872;4.712;2023-04-28T04:46:28;29.73;;;25.57;;
8777;SDS011;4425;50.872;4.712;2023-04-28T04:48:57;30.47;;;25.30;;
8777;SDS011;4425;50.872;4.712;2023-04-28T04:51:25;28.93;;;25.73;;
8777;SDS011;4425;50.872;4.712;2023-04-28T04:53:53;31.23;;;26.53;;
8777;SDS011;4425;50.872;4.712;2023-04-28T04:56:20;30.50;;;25.83;;
8777;SDS011;4425;50.872;4.712;2023-04-28T04:58:49;33.03;;;26.33;;
8777;SDS011;4425;50.872;4.712;2023-04-28T05:01:17;29.23;;;25.80;;
8777;SDS011;4425;50.872;4.712;2023-04-28T05:03:44;30.47;;;26.10;;
8777;SDS011;4425;50.872;4.712;2023-04-28T05:06:13;28.07;;;25.10;;
8777;SDS011;4425;50.872;4.712;2023-04-28T05:08:43;29.23;;;24.70;;
8777;SDS011;4425;50.872;4.712;2023-04-28T05:11:11;30.20;;;26.30;;
8777;SDS011;4425;50.872;4.712;2023-04-28T05:13:38;31.23;;;25.13;;
8777;SDS011;4425;50.872;4.712;2023-04-28T05:16:06;31.20;;;24.80;;
8777;SDS011;4425;50.872;4.712;2023-04-28T05:18:34;28.73;;;24.90;;
8777;SDS011;4425;50.872;4.712;2023-04-28T05:21:01;35.27;;;26.23;;
8777;SDS011;4425;50.872;4.712;2023-04-28T05:23:29;29.20;;;26.03;;
8777;SDS011;4425;50.872;4.712;2023-04-28T05:25:58;32.40;;;26.67;;
8777;SDS011;4425;50.872;4.712;2023-04-28T05:28:27;28.27;;;25.17;;
8777;SDS011;4425;50.872;4.712;2023-04-28T05:30:57;29.50;;;25.53;;
8777;SDS011;4425;50.872;4.712;2023-04-28T05:33:24;31.20;;;25.50;;
8777;SDS011;4425;50.872;4.712;2023-04-28T05:35:52;29.23;;;26.03;;
8777;SDS011;4425;50.872;4.712;2023-04-28T05:38:19;33.83;;;27.47;;
8777;SDS011;4425;50.872;4.712;2023-04-28T05:40:48;32.10;;;26.20;;
8777;SDS011;4425;50.872;4.712;2023-04-28T05:43:20;28.87;;;25.30;;
8777;SDS011;4425;50.872;4.712;2023-04-28T05:45:47;31.77;;;26.40;;
8777;SDS011;4425;50.872;4.712;2023-04-28T05:48:14;33.17;;;27.27;;
8777;SDS011;4425;50.872;4.712;2023-04-28T05:50:43;29.87;;;26.40;;
8777;SDS011;4425;50.872;4.712;2023-04-28T05:53:10;31.30;;;26.20;;
8777;SDS011;4425;50.872;4.712;2023-04-28T05:55:39;29.40;;;25.93;;
8777;SDS011;4425;50.872;4.712;2023-04-28T05:58:07;34.53;;;27.57;;
8777;SDS011;4425;50.872;4.712;2023-04-28T06:00:37;34.47;;;26.63;;
8777;SDS011;4425;50.872;4.712;2023-04-28T06:03:04;30.00;;;26.63;;
8777;SDS011;4425;50.872;4.712;2023-04-28T06:05:37;32.67;;;27.17;;
8777;SDS011;4425;50.872;4.712;2023-04-28T06:08:05;34.67;;;27.13;;
8777;SDS011;4425;50.872;4.712;2023-04-28T06:10:34;32.23;;;27.47;;
8777;SDS011;4425;50.872;4.712;2023-04-28T06:13:01;30.57;;;26.87;;
8777;SDS011;4425;50.872;4.712;2023-04-28T06:15:31;36.53;;;27.40;;
8777;SDS011;4425;50.872;4.712;2023-04-28T06:18:00;33.43;;;27.50;;
8777;SDS011;4425;50.872;4.712;2023-04-28T06:20:27;35.90;;;27.27;;
8777;SDS011;4425;50.872;4.712;2023-04-28T06:22:55;30.23;;;25.97;;
8777;SDS011;4425;50.872;4.712;2023-04-28T06:25:22;30.17;;;26.40;;
8777;SDS011;4425;50.872;4.712;2023-04-28T06:27:51;33.17;;;27.57;;
8777;SDS011;4425;50.872;4.712;2023-04-28T06:30:20;29.13;;;25.80;;
8777;SDS011;4425;50.872;4.712;2023-04-28T06:32:49;30.10;;;26.03;;
8777;SDS011;4425;50.872;4.712;2023-04-28T06:35:22;28.73;;;25.70;;
8777;SDS011;4425;50.872;4.712;2023-04-28T06:37:52;29.13;;;26.13;;
8777;SDS011;4425;50.872;4.712;2023-04-28T06:40:20;30.07;;;25.27;;
8777;SDS011;4425;50.872;4.712;2023-04-28T06:42:48;29.07;;;25.10;;
8777;SDS011;4425;50.872;4.712;2023-04-28T06:45:15;29.10;;;24.10;;
8777;SDS011;4425;50.872;4.712;2023-04-28T06:47:43;29.37;;;25.53;;
8777;SDS011;4425;50.872;4.712;2023-04-28T06:50:10;28.97;;;25.43;;
8777;SDS011;4425;50.872;4.712;2023-04-28T06:52:39;30.97;;;24.67;;
8777;SDS011;4425;50.872;4.712;2023-04-28T06:55:07;31.87;;;24.57;;
8777;SDS011;4425;50.872;4.712;2023-04-28T06:57:35;29.03;;;24.17;;
8777;SDS011;4425;50.872;4.712;2023-04-28T07:00:03;28.57;;;23.37;;
8777;SDS011;4425;50.872;4.712;2023-04-28T07:02:32;25.43;;;22.83;;
8777;SDS011;4425;50.872;4.712;2023-04-28T07:05:01;25.30;;;22.70;;
8777;SDS011;4425;50.872;4.712;2023-04-28T07:07:29;26.93;;;22.97;;
8777;SDS011;4425;50.872;4.712;2023-04-28T07:10:00;23.50;;;21.00;;
8777;SDS011;4425;50.872;4.712;2023-04-28T07:12:29;24.23;;;20.47;;
8777;SDS011;4425;50.872;4.712;2023-04-28T07:14:56;22.53;;;19.73;;
8777;SDS011;4425;50.872;4.712;2023-04-28T07:17:23;24.33;;;19.67;;
8777;SDS011;4425;50.872;4.712;2023-04-28T07:19:51;18.40;;;16.40;;
8777;SDS011;4425;50.872;4.712;2023-04-28T07:22:18;16.90;;;15.30;;
8777;SDS011;4425;50.872;4.712;2023-04-28T07:24:47;16.03;;;14.40;;
8777;SDS011;4425;50.872;4.712;2023-04-28T07:27:16;14.77;;;13.27;;
8777;SDS011;4425;50.872;4.712;2023-04-28T07:29:43;11.60;;;10.43;;
8777;SDS011;4425;50.872;4.712;2023-04-28T07:32:10;11.80;;;10.70;;
8777;SDS011;4425;50.872;4.712;2023-04-28T07:34:38;10.27;;;9.30;;
8777;SDS011;4425;50.872;4.712;2023-04-28T07:37:05;7.53;;;6.87;;
8777;SDS011;4425;50.872;4.712;2023-04-28T07:39:36;6.03;;;5.63;;
8777;SDS011;4425;50.872;4.712;2023-04-28T07:42:03;5.80;;;5.40;;
8777;SDS011;4425;50.872;4.712;2023-04-28T07:44:32;5.27;;;4.97;;
8777;SDS011;4425;50.872;4.712;2023-04-28T07:47:00;4.97;;;4.67;;
8777;SDS011;4425;50.872;4.712;2023-04-28T07:49:30;4.90;;;4.50;;
8777;SDS011;4425;50.872;4.712;2023-04-28T07:51:57;5.20;;;4.90;;
8777;SDS011;4425;50.872;4.712;2023-04-28T07:54:24;4.67;;;4.47;;
8777;SDS011;4425;50.872;4.712;2023-04-28T07:56:54;4.83;;;4.43;;
8777;SDS011;4425;50.872;4.712;2023-04-28T07:59:22;5.00;;;4.60;;
8777;SDS011;4425;50.872;4.712;2023-04-28T08:01:51;4.93;;;4.57;;
8777;SDS011;4425;50.872;4.712;2023-04-28T08:04:19;5.37;;;4.87;;
8777;SDS011;4425;50.872;4.712;2023-04-28T08:06:46;5.70;;;5.20;;
8777;SDS011;4425;50.872;4.712;2023-04-28T08:09:14;4.32;;;3.95;;
8777;SDS011;4425;50.872;4.712;2023-04-28T08:11:41;3.53;;;3.35;;
8777;SDS011;4425;50.872;4.712;2023-04-28T08:14:08;3.30;;;3.20;;
8777;SDS011;4425;50.872;4.712;2023-04-28T08:16:35;3.00;;;2.80;;
8777;SDS011;4425;50.872;4.712;2023-04-28T08:19:07;2.30;;;2.30;;
8777;SDS011;4425;50.872;4.712;2023-04-28T08:21:34;2.20;;;2.10;;
8777;SDS011;4425;50.872;4.712;2023-04-28T08:24:02;1.80;;;1.80;;
8777;SDS011;4425;50.872;4.712;2023-04-28T08:26:29;2.03;;;1.92;;
8777;SDS011;4425;50.872;4.712;2023-04-28T08:28:56;1.80;;;1.80;;
8777;SDS011;4425;50.872;4.712;2023-04-28T08:31:24;1.90;;;1.80;;
8777;SDS011;4425;50.872;4.712;2023-04-28T08:33:52;1.77;;;1.73;;
8777;SDS011;4425;50.872;4.712;2023-04-28T08:36:21;2.30;;;2.00;;
8777;SDS011;4425;50.872;4.712;2023-04-28T08:38:57;2.00;;;1.90;;
8777;SDS011;4425;50.872;4.712;2023-04-28T08:41:25;1.80;;;1.80;;
8777;SDS011;4425;50.872;4.712;2023-04-28T08:43:54;1.65;;;1.65;;
8777;SDS011;4425;50.872;4.712;2023-04-28T08:46:22;1.90;;;1.80;;
8777;SDS011;4425;50.872;4.712;2023-04-28T08:48:54;1.92;;;1.83;;
8777;SDS011;4425;50.872;4.712;2023-04-28T08:51:32;2.38;;;2.22;;
8777;SDS011;4425;50.872;4.712;2023-04-28T08:54:01;1.88;;;1.88;;
8777;SDS011;4425;50.872;4.712;2023-04-28T08:56:31;2.00;;;1.90;;
8777;SDS011;4425;50.872;4.712;2023-04-28T08:59:01;1.80;;;1.80;;
8777;SDS011;4425;50.872;4.712;2023-04-28T09:01:30;1.65;;;1.63;;
8777;SDS011;4425;50.872;4.712;2023-04-28T09:04:00;1.70;;;1.70;;
8777;SDS011;4425;50.872;4.712;2023-04-28T09:06:32;1.70;;;1.70;;
8777;SDS011;4425;50.872;4.712;2023-04-28T09:09:17;1.50;;;1.50;;
8777;SDS011;4425;50.872;4.712;2023-04-28T09:11:52;1.80;;;1.70;;
8777;SDS011;4425;50.872;4.712;2023-04-28T09:14:21;1.90;;;1.90;;
8777;SDS011;4425;50.872;4.712;2023-04-28T09:16:48;1.87;;;1.80;;
8777;SDS011;4425;50.872;4.712;2023-04-28T09:19:16;1.80;;;1.80;;
8777;SDS011;4425;50.872;4.712;2023-04-28T09:21:48;2.20;;;2.10;;
8777;SDS011;4425;50.872;4.712;2023-04-28T09:24:30;2.25;;;1.80;;
8777;SDS011;4425;50.872;4.712;2023-04-28T09:26:58;1.60;;;1.60;;
8777;SDS011;4425;50.872;4.712;2023-04-28T09:29:27;2.22;;;2.00;;
8777;SDS011;4425;50.872;4.712;2023-04-28T09:34:43;1.77;;;1.67;;
8777;SDS011;4425;50.872;4.712;2023-04-28T09:37:17;1.57;;;1.47;;
8777;SDS011;4425;50.872;4.712;2023-04-28T09:39:50;1.97;;;1.87;;
8777;SDS011;4425;50.872;4.712;2023-04-28T09:42:30;2.23;;;2.00;;
8777;SDS011;4425;50.872;4.712;2023-04-28T09:45:00;2.33;;;2.23;;
8777;SDS011;4425;50.872;4.712;2023-04-28T09:47:29;1.90;;;1.90;;
8777;SDS011;4425;50.872;4.712;2023-04-28T09:50:00;4.43;;;2.10;;
8777;SDS011;4425;50.872;4.712;2023-04-28T09:52:29;2.58;;;2.47;;
8777;SDS011;4425;50.872;4.712;2023-04-28T09:54:58;2.70;;;2.60;;
8777;SDS011;4425;50.872;4.712;2023-04-28T09:57:29;3.80;;;2.38;;
8777;SDS011;4425;50.872;4.712;2023-04-28T09:59:58;4.43;;;2.85;;
8777;SDS011;4425;50.872;4.712;2023-04-28T10:02:26;2.50;;;2.40;;
8777;SDS011;4425;50.872;4.712;2023-04-28T10:04:54;2.70;;;2.60;;
8777;SDS011;4425;50.872;4.712;2023-04-28T10:07:22;5.22;;;2.60;;
8777;SDS011;4425;50.872;4.712;2023-04-28T10:09:51;3.05;;;2.85;;
8777;SDS011;4425;50.872;4.712;2023-04-28T10:12:19;4.90;;;2.70;;
8777;SDS011;4425;50.872;4.712;2023-04-28T10:14:49;2.65;;;2.55;;
8777;SDS011;4425;50.872;4.712;2023-04-28T10:17:19;3.72;;;3.08;;
8777;SDS011;4425;50.872;4.712;2023-04-28T10:19:47;3.10;;;2.90;;
8777;SDS011;4425;50.872;4.712;2023-04-28T10:22:19;2.67;;;2.58;;
8777;SDS011;4425;50.872;4.712;2023-04-28T10:25:23;2.38;;;2.28;;
8777;SDS011;4425;50.872;4.712;2023-04-28T10:27:53;1.90;;;1.90;;
8777;SDS011;4425;50.872;4.712;2023-04-28T10:30:24;2.20;;;2.15;;
8777;SDS011;4425;50.872;4.712;2023-04-28T10:35:56;2.60;;;2.50;;
8777;SDS011;4425;50.872;4.712;2023-04-28T10:38:24;3.00;;;2.80;;
8777;SDS011;4425;50.872;4.712;2023-04-28T10:40:59;3.05;;;2.95;;
8777;SDS011;4425;50.872;4.712;2023-04-28T10:43:36;3.67;;;3.28;;
8777;SDS011;4425;50.872;4.712;2023-04-28T10:46:08;4.00;;;3.70;;
8777;SDS011;4425;50.872;4.712;2023-04-28T10:48:51;3.03;;;2.92;;
8777;SDS011;4425;50.872;4.712;2023-04-28T10:51:35;3.35;;;3.25;;
8777;SDS011;4425;50.872;4.712;2023-04-28T10:54:07;3.58;;;3.00;;
8777;SDS011;4425;50.872;4.712;2023-04-28T11:01:52;2.40;;;2.25;;
8777;SDS011;4425;50.872;4.712;2023-04-28T11:04:19;2.05;;;1.95;;
8777;SDS011;4425;50.872;4.712;2023-04-28T11:09:46;2.50;;;1.65;;
8777;SDS011;4425;50.872;4.712;2023-04-28T11:12:17;2.25;;;1.70;;
8777;SDS011;4425;50.872;4.712;2023-04-28T11:14:44;2.28;;;1.67;;
8777;SDS011;4425;50.872;4.712;2023-04-28T11:17:11;1.88;;;1.58;;
8777;SDS011;4425;50.872;4.712;2023-04-28T11:19:41;2.78;;;1.75;;
8777;SDS011;4425;50.872;4.712;2023-04-28T11:22:14;1.40;;;1.40;;
8777;SDS011;4425;50.872;4.712;2023-04-28T11:27:26;2.38;;;1.80;;
8777;SDS011;4425;50.872;4.712;2023-04-28T11:29:57;1.60;;;1.60;;
8777;SDS011;4425;50.872;4.712;2023-04-28T11:32:25;1.40;;;1.40;;
8777;SDS011;4425;50.872;4.712;2023-04-28T11:34:54;1.50;;;1.50;;
8777;SDS011;4425;50.872;4.712;2023-04-28T11:37:22;1.48;;;1.33;;
8777;SDS011;4425;50.872;4.712;2023-04-28T11:39:50;1.27;;;1.27;;
8777;SDS011;4425;50.872;4.712;2023-04-28T11:42:18;1.30;;;1.20;;
8777;SDS011;4425;50.872;4.712;2023-04-28T11:44:50;1.30;;;1.20;;
8777;SDS011;4425;50.872;4.712;2023-04-28T11:47:28;3.42;;;1.40;;
8777;SDS011;4425;50.872;4.712;2023-04-28T11:52:27;1.70;;;1.70;;
8777;SDS011;4425;50.872;4.712;2023-04-28T11:54:56;1.80;;;1.70;;
8777;SDS011;4425;50.872;4.712;2023-04-28T11:57:28;1.70;;;1.60;;
8777;SDS011;4425;50.872;4.712;2023-04-28T12:02:56;1.77;;;1.67;;
8777;SDS011;4425;50.872;4.712;2023-04-28T12:05:24;2.88;;;1.80;;
8777;SDS011;4425;50.872;4.712;2023-04-28T12:07:51;2.30;;;2.10;;
8777;SDS011;4425;50.872;4.712;2023-04-28T12:10:20;1.77;;;1.77;;
8777;SDS011;4425;50.872;4.712;2023-04-28T12:12:47;2.77;;;2.67;;
8777;SDS011;4425;50.872;4.712;2023-04-28T12:15:15;3.30;;;3.20;;
8777;SDS011;4425;50.872;4.712;2023-04-28T12:17:43;4.00;;;3.33;;
8777;SDS011;4425;50.872;4.712;2023-04-28T12:23:02;3.03;;;2.78;;
8777;SDS011;4425;50.872;4.712;2023-04-28T12:25:47;2.55;;;2.33;;
8777;SDS011;4425;50.872;4.712;2023-04-28T12:28:15;2.10;;;2.00;;
8777;SDS011;4425;50.872;4.712;2023-04-28T12:30:42;2.07;;;1.97;;
8777;SDS011;4425;50.872;4.712;2023-04-28T12:33:20;1.73;;;1.70;;
8777;SDS011;4425;50.872;4.712;2023-04-28T12:35:51;3.63;;;2.30;;
8777;SDS011;4425;50.872;4.712;2023-04-28T12:38:20;2.67;;;2.47;;
8777;SDS011;4425;50.872;4.712;2023-04-28T12:40:51;2.63;;;2.42;;
8777;SDS011;4425;50.872;4.712;2023-04-28T12:43:19;2.30;;;2.03;;
8777;SDS011;4425;50.872;4.712;2023-04-28T12:45:49;3.13;;;1.88;;
8777;SDS011;4425;50.872;4.712;2023-04-28T12:48:17;1.80;;;1.80;;
8777;SDS011;4425;50.872;4.712;2023-04-28T12:50:44;1.88;;;1.63;;
8777;SDS011;4425;50.872;4.712;2023-04-28T12:53:20;1.63;;;1.60;;
8777;SDS011;4425;50.872;4.712;2023-04-28T12:55:47;1.33;;;1.30;;
8777;SDS011;4425;50.872;4.712;2023-04-28T12:58:16;1.40;;;1.30;;
8777;SDS011;4425;50.872;4.712;2023-04-28T13:00:43;2.05;;;1.30;;
8777;SDS011;4425;50.872;4.712;2023-04-28T13:03:10;1.40;;;1.35;;
8777;SDS011;4425;50.872;4.712;2023-04-28T13:05:37;1.63;;;1.52;;
8777;SDS011;4425;50.872;4.712;2023-04-28T13:08:05;1.30;;;1.30;;
8777;SDS011;4425;50.872;4.712;2023-04-28T13:10:34;1.02;;;1.02;;
8777;SDS011;4425;50.872;4.712;2023-04-28T13:13:03;1.23;;;1.23;;
8777;SDS011;4425;50.872;4.712;2023-04-28T13:15:32;0.90;;;0.90;;
8777;SDS011;4425;50.872;4.712;2023-04-28T13:18:00;2.27;;;1.20;;
8777;SDS011;4425;50.872;4.712;2023-04-28T13:20:27;6.57;;;4.75;;
8777;SDS011;4425;50.872;4.712;2023-04-28T13:22:54;2.27;;;1.27;;
8777;SDS011;4425;50.872;4.712;2023-04-28T13:25:24;1.20;;;1.20;;
8777;SDS011;4425;50.872;4.712;2023-04-28T13:27:53;1.33;;;1.23;;
8777;SDS011;4425;50.872;4.712;2023-04-28T13:30:21;1.30;;;1.20;;
8777;SDS011;4425;50.872;4.712;2023-04-28T13:32:50;3.17;;;1.40;;
8777;SDS011;4425;50.872;4.712;2023-04-28T13:35:17;1.50;;;1.40;;
8777;SDS011;4425;50.872;4.712;2023-04-28T13:37:46;1.70;;;1.40;;
8777;SDS011;4425;50.872;4.712;2023-04-28T13:40:13;1.20;;;1.20;;
8777;SDS011;4425;50.872;4.712;2023-04-28T13:42:41;1.60;;;1.50;;
8777;SDS011;4425;50.872;4.712;2023-04-28T13:45:10;2.40;;;1.67;;
8777;SDS011;4425;50.872;4.712;2023-04-28T13:47:39;1.63;;;1.50;;
8777;SDS011;4425;50.872;4.712;2023-04-28T13:50:07;3.53;;;1.60;;
8777;SDS011;4425;50.872;4.712;2023-04-28T13:52:34;1.60;;;1.40;;
8777;SDS011;4425;50.872;4.712;2023-04-28T13:55:03;2.50;;;1.40;;
8777;SDS011;4425;50.872;4.712;2023-04-28T13:57:31;2.53;;;1.33;;
8777;SDS011;4425;50.872;4.712;2023-04-28T13:59:58;1.60;;;1.50;;
8777;SDS011;4425;50.872;4.712;2023-04-28T14:02:27;1.57;;;1.57;;
8777;SDS011;4425;50.872;4.712;2023-04-28T14:04:55;1.95;;;1.67;;
8777;SDS011;4425;50.872;4.712;2023-04-28T14:07:22;1.37;;;1.27;;
8777;SDS011;4425;50.872;4.712;2023-04-28T14:09:50;1.40;;;1.27;;
8777;SDS011;4425;50.872;4.712;2023-04-28T14:12:18;4.43;;;1.43;;
8777;SDS011;4425;50.872;4.712;2023-04-28T14:14:45;1.80;;;1.70;;
8777;SDS011;4425;50.872;4.712;2023-04-28T14:17:14;1.40;;;1.40;;
8777;SDS011;4425;50.872;4.712;2023-04-28T14:19:45;1.40;;;1.40;;
8777;SDS011;4425;50.872;4.712;2023-04-28T14:22:12;1.27;;;1.27;;
8777;SDS011;4425;50.872;4.712;2023-04-28T14:24:40;1.40;;;1.30;;
8777;SDS011;4425;50.872;4.712;2023-04-28T14:27:09;1.27;;;1.27;;
8777;SDS011;4425;50.872;4.712;2023-04-28T14:29:36;2.20;;;1.40;;
8777;SDS011;4425;50.872;4.712;2023-04-28T14:32:04;3.83;;;1.50;;
8777;SDS011;4425;50.872;4.712;2023-04-28T14:34:33;1.47;;;1.40;;
8777;SDS011;4425;50.872;4.712;2023-04-28T14:37:04;3.10;;;1.20;;
8777;SDS011;4425;50.872;4.712;2023-04-28T14:39:31;1.50;;;1.40;;
8777;SDS011;4425;50.872;4.712;2023-04-28T14:41:59;4.63;;;1.20;;
8777;SDS011;4425;50.872;4.712;2023-04-28T14:44:28;1.23;;;1.23;;
8777;SDS011;4425;50.872;4.712;2023-04-28T14:46:55;1.10;;;1.10;;
8777;SDS011;4425;50.872;4.712;2023-04-28T14:49:24;1.40;;;1.30;;
8777;SDS011;4425;50.872;4.712;2023-04-28T14:51:53;1.10;;;1.10;;
8777;SDS011;4425;50.872;4.712;2023-04-28T14:54:32;1.10;;;1.10;;
8777;SDS011;4425;50.872;4.712;2023-04-28T14:57:00;1.20;;;1.20;;
8777;SDS011;4425;50.872;4.712;2023-04-28T14:59:29;1.30;;;1.30;;
8777;SDS011;4425;50.872;4.712;2023-04-28T15:01:56;1.30;;;1.30;;
8777;SDS011;4425;50.872;4.712;2023-04-28T15:04:24;1.20;;;1.20;;
8777;SDS011;4425;50.872;4.712;2023-04-28T15:06:54;1.27;;;1.20;;
8777;SDS011;4425;50.872;4.712;2023-04-28T15:09:27;2.50;;;1.20;;
8777;SDS011;4425;50.872;4.712;2023-04-28T15:11:55;1.20;;;1.10;;
8777;SDS011;4425;50.872;4.712;2023-04-28T15:14:25;2.72;;;1.50;;
8777;SDS011;4425;50.872;4.712;2023-04-28T15:16:55;2.07;;;1.23;;
8777;SDS011;4425;50.872;4.712;2023-04-28T15:19:23;1.10;;;1.10;;
8777;SDS011;4425;50.872;4.712;2023-04-28T15:21:52;1.30;;;1.30;;
8777;SDS011;4425;50.872;4.712;2023-04-28T15:24:20;1.40;;;1.10;;
8777;SDS011;4425;50.872;4.712;2023-04-28T15:26:59;1.15;;;1.02;;
8777;SDS011;4425;50.872;4.712;2023-04-28T15:29:29;1.30;;;1.20;;
8777;SDS011;4425;50.872;4.712;2023-04-28T15:34:33;1.10;;;1.10;;
8777;SDS011;4425;50.872;4.712;2023-04-28T15:37:29;1.20;;;1.20;;
8777;SDS011;4425;50.872;4.712;2023-04-28T15:40:05;2.13;;;1.10;;